This is the latest recevied weather packets stored in our database for station/object WB4E-13. If no packets are shown the sender has not sent any weather packets the latest 10 day(s).
| Time | Temp. | Humidity | Pressure | Rain* | Wind** | Luminosity | Snow |
|---|---|---|---|---|---|---|---|
| 1777583264 | 19.44° C | 42% | 1009.8 hPa | 0 mm | - | - | - |
| 1777582664 | 19.44° C | 43% | 1009.8 hPa | 0 mm | - | - | - |
| 1777582064 | 19.44° C | 39% | 1009.8 hPa | 0 mm | - | - | - |
| 1777581468 | 19.44° C | 41% | 1009.9 hPa | 0 mm | - | - | - |
| 1777580868 | 19.44° C | 43% | 1010.2 hPa | 0 mm | - | - | - |
| 1777580268 | 19.44° C | 43% | 1010.3 hPa | 0 mm | - | - | - |
| 1777579667 | 19.44° C | 43% | 1010.5 hPa | 0 mm | - | - | - |
| 1777579067 | 19.44° C | 41% | 1010.6 hPa | 0 mm | - | - | - |
| 1777578467 | 18.89° C | 39% | 1010.6 hPa | 0 mm | - | - | - |
| 1777577867 | 19.44° C | 41% | 1010.5 hPa | 0 mm | - | - | - |
| 1777577514 | 18.33° C | 94% | 1007.9 hPa | 0.51 mm | - | - | - |
| 1777577513 | 17.22° C | 93% | 1007.1 hPa | 0.51 mm | - | - | - |
| 1777577267 | 19.44° C | 42% | 1010.4 hPa | 0 mm | - | - | - |
| 1777576666 | 19.44° C | 42% | 1010.4 hPa | 0 mm | - | - | - |
| 1777576065 | 19.44° C | 39% | 1010.4 hPa | 0 mm | - | - | - |
| 1777575465 | 19.44° C | 48% | 1010.4 hPa | 0 mm | - | - | - |
| 1777574864 | 19.44° C | 48% | 1010.5 hPa | 0 mm | - | - | - |
| 1777574264 | 18.89° C | 48% | 1010.3 hPa | 0 mm | - | - | - |
| 1777573664 | 19.44° C | 49% | 1010.4 hPa | 0 mm | - | - | - |
| 1777573064 | 18.89° C | 53% | 1010.3 hPa | 0 mm | - | - | - |
| 1777572545 | 18.89° C | 52% | 1010.7 hPa | 0 mm | - | - | - |
| 1777572468 | 18.89° C | 52% | 1010.7 hPa | 0 mm | - | - | - |
| 1777571868 | 18.89° C | 54% | 1010.6 hPa | 0 mm | - | - | - |
| 1777571268 | 18.89° C | 56% | 1010.5 hPa | 0 mm | - | - | - |
| 1777570668 | 18.89° C | 55% | 1010.5 hPa | 0 mm | - | - | - |
* Rain latest hour (hover to see other rain measurements)
** Current wind speed in m/s (hover to see current wind gust speed)